sensor_id;sensor_type;location;lat;lon;timestamp;pressure;altitude;pressure_sealevel;temperature;humidity
20630;BME280;17386;43.846;25.950;2023-03-26T00:00:08;100474.47;;;14.06;100.00
20630;BME280;17386;43.846;25.950;2023-03-26T00:02:35;100477.41;;;14.02;100.00
20630;BME280;17386;43.846;25.950;2023-03-26T00:05:04;100470.88;;;14.07;100.00
20630;BME280;17386;43.846;25.950;2023-03-26T00:07:30;100467.94;;;13.96;100.00
20630;BME280;17386;43.846;25.950;2023-03-26T00:09:55;100467.06;;;13.95;100.00
20630;BME280;17386;43.846;25.950;2023-03-26T00:12:23;100460.34;;;13.88;100.00
20630;BME280;17386;43.846;25.950;2023-03-26T00:14:49;100462.88;;;13.74;100.00
20630;BME280;17386;43.846;25.950;2023-03-26T00:17:15;100462.38;;;13.83;100.00
20630;BME280;17386;43.846;25.950;2023-03-26T00:19:41;100464.63;;;13.91;100.00
20630;BME280;17386;43.846;25.950;2023-03-26T00:22:07;100444.66;;;13.98;100.00
20630;BME280;17386;43.846;25.950;2023-03-26T00:24:35;100437.94;;;14.07;100.00
20630;BME280;17386;43.846;25.950;2023-03-26T00:27:01;100442.59;;;14.03;100.00
20630;BME280;17386;43.846;25.950;2023-03-26T00:29:27;100429.00;;;14.08;100.00
20630;BME280;17386;43.846;25.950;2023-03-26T00:31:52;100433.50;;;14.23;100.00
20630;BME280;17386;43.846;25.950;2023-03-26T00:34:18;100437.56;;;14.30;100.00
20630;BME280;17386;43.846;25.950;2023-03-26T00:36:44;100459.78;;;14.31;100.00
20630;BME280;17386;43.846;25.950;2023-03-26T00:39:11;100431.78;;;14.22;100.00
20630;BME280;17386;43.846;25.950;2023-03-26T00:41:37;100437.56;;;13.81;100.00
20630;BME280;17386;43.846;25.950;2023-03-26T00:44:07;100466.28;;;13.60;100.00
20630;BME280;17386;43.846;25.950;2023-03-26T00:46:33;100460.63;;;13.49;100.00
20630;BME280;17386;43.846;25.950;2023-03-26T00:49:01;100462.19;;;13.36;100.00
20630;BME280;17386;43.846;25.950;2023-03-26T00:51:28;100444.25;;;13.22;100.00
20630;BME280;17386;43.846;25.950;2023-03-26T00:53:55;100443.25;;;13.25;100.00
20630;BME280;17386;43.846;25.950;2023-03-26T00:56:21;100469.19;;;13.21;100.00
20630;BME280;17386;43.846;25.950;2023-03-26T00:58:46;100490.22;;;12.91;100.00
20630;BME280;17386;43.846;25.950;2023-03-26T01:01:17;100500.94;;;12.90;100.00
20630;BME280;17386;43.846;25.950;2023-03-26T01:03:45;100501.69;;;12.93;100.00
20630;BME280;17386;43.846;25.950;2023-03-26T01:06:14;100498.06;;;12.94;100.00
20630;BME280;17386;43.846;25.950;2023-03-26T01:08:46;100491.88;;;12.94;100.00
20630;BME280;17386;43.846;25.950;2023-03-26T01:11:13;100507.75;;;12.78;100.00
20630;BME280;17386;43.846;25.950;2023-03-26T01:13:51;100516.34;;;12.66;100.00
20630;BME280;17386;43.846;25.950;2023-03-26T01:16:33;100530.31;;;12.71;100.00
20630;BME280;17386;43.846;25.950;2023-03-26T01:19:02;100530.94;;;12.76;100.00
20630;BME280;17386;43.846;25.950;2023-03-26T01:21:28;100533.00;;;12.71;100.00
20630;BME280;17386;43.846;25.950;2023-03-26T01:23:58;100534.63;;;12.73;100.00
20630;BME280;17386;43.846;25.950;2023-03-26T01:45:43;100540.19;;;12.50;100.00
20630;BME280;17386;43.846;25.950;2023-03-26T01:48:11;100545.38;;;12.53;100.00
20630;BME280;17386;43.846;25.950;2023-03-26T01:50:36;100538.16;;;12.55;100.00
20630;BME280;17386;43.846;25.950;2023-03-26T01:53:02;100539.09;;;12.54;100.00
20630;BME280;17386;43.846;25.950;2023-03-26T01:58:47;100531.53;;;12.26;100.00
20630;BME280;17386;43.846;25.950;2023-03-26T02:01:46;100530.81;;;12.22;100.00
20630;BME280;17386;43.846;25.950;2023-03-26T02:07:02;100530.38;;;12.31;100.00
20630;BME280;17386;43.846;25.950;2023-03-26T02:09:32;100535.19;;;12.23;100.00
20630;BME280;17386;43.846;25.950;2023-03-26T02:12:01;100524.75;;;12.19;100.00
20630;BME280;17386;43.846;25.950;2023-03-26T02:14:29;100523.69;;;12.23;100.00
20630;BME280;17386;43.846;25.950;2023-03-26T02:16:58;100534.06;;;12.29;100.00
20630;BME280;17386;43.846;25.950;2023-03-26T02:19:25;100509.06;;;12.31;100.00
20630;BME280;17386;43.846;25.950;2023-03-26T02:21:50;100522.19;;;12.36;100.00
20630;BME280;17386;43.846;25.950;2023-03-26T02:24:17;100527.34;;;12.39;100.00
20630;BME280;17386;43.846;25.950;2023-03-26T02:26:43;100518.72;;;12.34;100.00
20630;BME280;17386;43.846;25.950;2023-03-26T02:29:09;100526.22;;;12.45;100.00
20630;BME280;17386;43.846;25.950;2023-03-26T02:31:34;100526.00;;;12.30;100.00
20630;BME280;17386;43.846;25.950;2023-03-26T02:34:00;100530.59;;;12.27;100.00
20630;BME280;17386;43.846;25.950;2023-03-26T02:36:26;100527.22;;;12.23;100.00
20630;BME280;17386;43.846;25.950;2023-03-26T02:38:53;100523.19;;;12.33;100.00
20630;BME280;17386;43.846;25.950;2023-03-26T02:41:19;100525.34;;;12.25;100.00
20630;BME280;17386;43.846;25.950;2023-03-26T02:43:44;100522.31;;;12.33;100.00
20630;BME280;17386;43.846;25.950;2023-03-26T02:46:10;100520.88;;;12.45;100.00
20630;BME280;17386;43.846;25.950;2023-03-26T02:48:35;100523.25;;;12.51;100.00
20630;BME280;17386;43.846;25.950;2023-03-26T02:51:02;100530.75;;;12.43;100.00
20630;BME280;17386;43.846;25.950;2023-03-26T02:53:27;100531.47;;;12.46;100.00
20630;BME280;17386;43.846;25.950;2023-03-26T02:55:56;100539.00;;;12.55;100.00
20630;BME280;17386;43.846;25.950;2023-03-26T02:58:22;100540.13;;;12.51;100.00
20630;BME280;17386;43.846;25.950;2023-03-26T03:00:53;100539.75;;;12.59;100.00
20630;BME280;17386;43.846;25.950;2023-03-26T03:03:25;100538.16;;;12.55;100.00
20630;BME280;17386;43.846;25.950;2023-03-26T03:05:51;100542.63;;;12.54;100.00
20630;BME280;17386;43.846;25.950;2023-03-26T03:08:21;100548.75;;;12.56;100.00
20630;BME280;17386;43.846;25.950;2023-03-26T03:11:08;100545.88;;;12.61;100.00
20630;BME280;17386;43.846;25.950;2023-03-26T03:13:33;100543.63;;;12.52;100.00
20630;BME280;17386;43.846;25.950;2023-03-26T03:15:59;100539.63;;;12.43;100.00
20630;BME280;17386;43.846;25.950;2023-03-26T03:18:24;100538.41;;;12.50;100.00
20630;BME280;17386;43.846;25.950;2023-03-26T03:20:50;100548.66;;;12.39;100.00
20630;BME280;17386;43.846;25.950;2023-03-26T03:23:16;100549.44;;;12.41;100.00
20630;BME280;17386;43.846;25.950;2023-03-26T03:25:42;100536.19;;;12.21;100.00
20630;BME280;17386;43.846;25.950;2023-03-26T03:28:07;100549.38;;;12.24;100.00
20630;BME280;17386;43.846;25.950;2023-03-26T03:30:33;100551.53;;;12.16;100.00
20630;BME280;17386;43.846;25.950;2023-03-26T03:32:59;100543.53;;;12.16;100.00
20630;BME280;17386;43.846;25.950;2023-03-26T03:35:27;100543.81;;;12.10;100.00
20630;BME280;17386;43.846;25.950;2023-03-26T03:37:54;100543.75;;;12.11;100.00
20630;BME280;17386;43.846;25.950;2023-03-26T03:40:20;100545.25;;;12.17;100.00
20630;BME280;17386;43.846;25.950;2023-03-26T03:42:46;100548.22;;;12.11;100.00
20630;BME280;17386;43.846;25.950;2023-03-26T03:45:12;100539.44;;;12.09;100.00
20630;BME280;17386;43.846;25.950;2023-03-26T03:47:37;100547.53;;;12.05;100.00
20630;BME280;17386;43.846;25.950;2023-03-26T03:50:03;100544.09;;;12.03;100.00
20630;BME280;17386;43.846;25.950;2023-03-26T03:52:29;100545.66;;;12.08;100.00
20630;BME280;17386;43.846;25.950;2023-03-26T03:54:55;100546.47;;;12.10;100.00
20630;BME280;17386;43.846;25.950;2023-03-26T03:57:22;100548.13;;;12.12;100.00
20630;BME280;17386;43.846;25.950;2023-03-26T03:59:48;100550.44;;;12.01;100.00
20630;BME280;17386;43.846;25.950;2023-03-26T04:02:14;100555.59;;;12.04;100.00
20630;BME280;17386;43.846;25.950;2023-03-26T04:04:52;100552.88;;;12.05;100.00
20630;BME280;17386;43.846;25.950;2023-03-26T04:07:19;100553.00;;;12.02;100.00
20630;BME280;17386;43.846;25.950;2023-03-26T04:09:45;100547.25;;;12.12;100.00
20630;BME280;17386;43.846;25.950;2023-03-26T04:12:11;100553.53;;;12.11;100.00
20630;BME280;17386;43.846;25.950;2023-03-26T04:14:36;100553.34;;;12.15;100.00
20630;BME280;17386;43.846;25.950;2023-03-26T04:17:01;100549.22;;;12.08;100.00
20630;BME280;17386;43.846;25.950;2023-03-26T04:19:29;100549.22;;;12.08;100.00
20630;BME280;17386;43.846;25.950;2023-03-26T04:21:55;100557.13;;;12.10;100.00
20630;BME280;17386;43.846;25.950;2023-03-26T04:24:26;100558.19;;;12.05;100.00
20630;BME280;17386;43.846;25.950;2023-03-26T04:26:52;100553.72;;;12.06;100.00
20630;BME280;17386;43.846;25.950;2023-03-26T04:29:17;100557.53;;;12.00;100.00
20630;BME280;17386;43.846;25.950;2023-03-26T04:31:48;100555.41;;;12.09;100.00
20630;BME280;17386;43.846;25.950;2023-03-26T04:34:20;100558.53;;;11.98;100.00
20630;BME280;17386;43.846;25.950;2023-03-26T04:36:48;100547.09;;;11.96;100.00
20630;BME280;17386;43.846;25.950;2023-03-26T04:39:13;100561.06;;;12.01;100.00
20630;BME280;17386;43.846;25.950;2023-03-26T04:41:39;100559.88;;;12.08;100.00
20630;BME280;17386;43.846;25.950;2023-03-26T04:44:04;100561.88;;;12.03;100.00
20630;BME280;17386;43.846;25.950;2023-03-26T04:46:30;100573.50;;;12.00;100.00
20630;BME280;17386;43.846;25.950;2023-03-26T04:49:01;100572.84;;;11.95;100.00
20630;BME280;17386;43.846;25.950;2023-03-26T04:51:34;100563.59;;;12.04;100.00
20630;BME280;17386;43.846;25.950;2023-03-26T04:54:03;100563.78;;;11.99;100.00
20630;BME280;17386;43.846;25.950;2023-03-26T04:59:18;100581.16;;;12.08;100.00
20630;BME280;17386;43.846;25.950;2023-03-26T05:01:44;100572.75;;;12.17;100.00
20630;BME280;17386;43.846;25.950;2023-03-26T05:04:12;100564.78;;;12.17;100.00
20630;BME280;17386;43.846;25.950;2023-03-26T05:06:39;100582.56;;;12.17;100.00
20630;BME280;17386;43.846;25.950;2023-03-26T05:09:06;100580.75;;;12.17;100.00
20630;BME280;17386;43.846;25.950;2023-03-26T05:11:32;100585.91;;;12.01;100.00
20630;BME280;17386;43.846;25.950;2023-03-26T05:13:58;100587.66;;;12.21;100.00
20630;BME280;17386;43.846;25.950;2023-03-26T05:16:24;100592.59;;;12.30;100.00
20630;BME280;17386;43.846;25.950;2023-03-26T05:18:50;100592.06;;;12.22;100.00
20630;BME280;17386;43.846;25.950;2023-03-26T05:21:16;100594.56;;;12.25;100.00
20630;BME280;17386;43.846;25.950;2023-03-26T05:23:41;100610.13;;;12.35;100.00
20630;BME280;17386;43.846;25.950;2023-03-26T05:26:08;100617.44;;;12.11;100.00
20630;BME280;17386;43.846;25.950;2023-03-26T05:28:33;100618.31;;;12.11;100.00
20630;BME280;17386;43.846;25.950;2023-03-26T05:30:59;100633.34;;;12.12;100.00
20630;BME280;17386;43.846;25.950;2023-03-26T05:33:25;100628.28;;;11.86;100.00
20630;BME280;17386;43.846;25.950;2023-03-26T05:36:02;100635.06;;;11.93;100.00
20630;BME280;17386;43.846;25.950;2023-03-26T05:38:29;100637.88;;;11.90;100.00
20630;BME280;17386;43.846;25.950;2023-03-26T05:41:02;100638.47;;;11.96;100.00
20630;BME280;17386;43.846;25.950;2023-03-26T05:43:29;100655.25;;;11.76;100.00
20630;BME280;17386;43.846;25.950;2023-03-26T05:45:55;100643.84;;;11.73;100.00
20630;BME280;17386;43.846;25.950;2023-03-26T05:48:21;100648.78;;;11.62;100.00
20630;BME280;17386;43.846;25.950;2023-03-26T05:50:52;100658.88;;;11.54;100.00
20630;BME280;17386;43.846;25.950;2023-03-26T05:53:18;100647.72;;;11.44;100.00
20630;BME280;17386;43.846;25.950;2023-03-26T05:55:45;100650.59;;;11.39;100.00
20630;BME280;17386;43.846;25.950;2023-03-26T05:58:15;100648.03;;;11.36;100.00
20630;BME280;17386;43.846;25.950;2023-03-26T06:00:40;100645.19;;;11.41;100.00
20630;BME280;17386;43.846;25.950;2023-03-26T06:03:06;100646.13;;;11.40;100.00
20630;BME280;17386;43.846;25.950;2023-03-26T06:05:38;100641.09;;;11.32;100.00
20630;BME280;17386;43.846;25.950;2023-03-26T06:08:04;100642.03;;;11.31;100.00
20630;BME280;17386;43.846;25.950;2023-03-26T06:10:30;100645.56;;;11.32;100.00
20630;BME280;17386;43.846;25.950;2023-03-26T06:12:55;100654.16;;;11.38;100.00
20630;BME280;17386;43.846;25.950;2023-03-26T06:15:21;100645.75;;;11.49;100.00
20630;BME280;17386;43.846;25.950;2023-03-26T06:17:46;100655.22;;;11.56;100.00
20630;BME280;17386;43.846;25.950;2023-03-26T06:20:13;100667.56;;;11.57;100.00
20630;BME280;17386;43.846;25.950;2023-03-26T06:22:38;100659.97;;;11.48;100.00
20630;BME280;17386;43.846;25.950;2023-03-26T06:25:04;100655.34;;;11.53;100.00
20630;BME280;17386;43.846;25.950;2023-03-26T06:27:30;100656.19;;;11.75;100.00
20630;BME280;17386;43.846;25.950;2023-03-26T06:29:55;100669.28;;;11.82;100.00
20630;BME280;17386;43.846;25.950;2023-03-26T06:32:20;100661.16;;;11.85;100.00
20630;BME280;17386;43.846;25.950;2023-03-26T06:34:46;100671.09;;;12.01;100.00
20630;BME280;17386;43.846;25.950;2023-03-26T06:37:12;100674.47;;;12.25;100.00
20630;BME280;17386;43.846;25.950;2023-03-26T06:39:37;100662.13;;;12.64;100.00
20630;BME280;17386;43.846;25.950;2023-03-26T06:42:03;100679.63;;;12.69;100.00
20630;BME280;17386;43.846;25.950;2023-03-26T06:44:28;100673.38;;;12.89;100.00
20630;BME280;17386;43.846;25.950;2023-03-26T06:46:53;100672.44;;;12.90;100.00
20630;BME280;17386;43.846;25.950;2023-03-26T06:49:19;100677.50;;;12.77;100.00
20630;BME280;17386;43.846;25.950;2023-03-26T06:51:45;100688.91;;;13.00;100.00
20630;BME280;17386;43.846;25.950;2023-03-26T06:54:11;100691.63;;;12.98;100.00
20630;BME280;17386;43.846;25.950;2023-03-26T06:56:37;100699.94;;;13.11;100.00
20630;BME280;17386;43.846;25.950;2023-03-26T06:59:02;100702.63;;;12.72;100.00
20630;BME280;17386;43.846;25.950;2023-03-26T07:01:28;100703.44;;;12.53;100.00
20630;BME280;17386;43.846;25.950;2023-03-26T07:03:53;100707.38;;;12.65;100.00
20630;BME280;17386;43.846;25.950;2023-03-26T07:06:19;100708.91;;;12.90;100.00
20630;BME280;17386;43.846;25.950;2023-03-26T07:08:44;100713.84;;;12.99;100.00
20630;BME280;17386;43.846;25.950;2023-03-26T07:11:10;100716.69;;;12.94;100.00
20630;BME280;17386;43.846;25.950;2023-03-26T07:13:35;100721.78;;;13.19;100.00
20630;BME280;17386;43.846;25.950;2023-03-26T07:16:02;100721.38;;;13.47;100.00
20630;BME280;17386;43.846;25.950;2023-03-26T07:18:27;100727.56;;;13.48;100.00
20630;BME280;17386;43.846;25.950;2023-03-26T07:20:53;100726.41;;;13.34;100.00
20630;BME280;17386;43.846;25.950;2023-03-26T07:23:19;100736.81;;;13.40;100.00
20630;BME280;17386;43.846;25.950;2023-03-26T07:25:46;100718.91;;;13.43;100.00
20630;BME280;17386;43.846;25.950;2023-03-26T07:28:34;100724.31;;;13.60;100.00
20630;BME280;17386;43.846;25.950;2023-03-26T07:33:37;100725.50;;;14.08;100.00
20630;BME280;17386;43.846;25.950;2023-03-26T07:36:22;100721.34;;;14.37;97.38
20630;BME280;17386;43.846;25.950;2023-03-26T07:39:34;100738.97;;;14.58;92.22
20630;BME280;17386;43.846;25.950;2023-03-26T07:47:41;100733.88;;;14.87;92.03
20630;BME280;17386;43.846;25.950;2023-03-26T07:50:14;100737.72;;;14.98;91.61
20630;BME280;17386;43.846;25.950;2023-03-26T07:52:40;100728.94;;;14.79;92.91
20630;BME280;17386;43.846;25.950;2023-03-26T07:55:06;100736.72;;;14.84;91.70
20630;BME280;17386;43.846;25.950;2023-03-26T07:57:51;100740.06;;;15.04;92.86
20630;BME280;17386;43.846;25.950;2023-03-26T08:00:21;100742.84;;;15.03;92.11
20630;BME280;17386;43.846;25.950;2023-03-26T08:16:15;100749.38;;;15.78;88.98
20630;BME280;17386;43.846;25.950;2023-03-26T08:21:29;100750.31;;;15.61;87.38
20630;BME280;17386;43.846;25.950;2023-03-26T08:24:18;100760.00;;;15.64;84.14
20630;BME280;17386;43.846;25.950;2023-03-26T08:27:34;100758.69;;;15.71;82.68
20630;BME280;17386;43.846;25.950;2023-03-26T08:29:59;100778.19;;;15.57;79.29
20630;BME280;17386;43.846;25.950;2023-03-26T08:32:29;100773.19;;;15.51;79.57
20630;BME280;17386;43.846;25.950;2023-03-26T08:34:54;100774.84;;;15.53;79.46
20630;BME280;17386;43.846;25.950;2023-03-26T08:37:21;100775.31;;;15.28;80.12
20630;BME280;17386;43.846;25.950;2023-03-26T08:39:47;100780.09;;;15.39;80.52
20630;BME280;17386;43.846;25.950;2023-03-26T08:56:45;100770.91;;;15.92;80.26
20630;BME280;17386;43.846;25.950;2023-03-26T09:10:22;100768.94;;;16.10;75.55
20630;BME280;17386;43.846;25.950;2023-03-26T09:13:33;100771.94;;;16.35;73.98
20630;BME280;17386;43.846;25.950;2023-03-26T09:22:10;100748.31;;;17.01;67.14
20630;BME280;17386;43.846;25.950;2023-03-26T09:28:02;100744.00;;;17.27;62.29
20630;BME280;17386;43.846;25.950;2023-03-26T09:33:53;100734.34;;;17.80;62.02
20630;BME280;17386;43.846;25.950;2023-03-26T09:36:31;100738.78;;;17.52;60.06
20630;BME280;17386;43.846;25.950;2023-03-26T09:50:31;100715.31;;;17.68;61.41
20630;BME280;17386;43.846;25.950;2023-03-26T09:53:35;100726.88;;;18.37;57.33
20630;BME280;17386;43.846;25.950;2023-03-26T10:04:46;100705.00;;;18.69;52.63
20630;BME280;17386;43.846;25.950;2023-03-26T10:06:59;100705.25;;;18.51;53.39
20630;BME280;17386;43.846;25.950;2023-03-26T10:09:52;100689.44;;;18.59;54.10
20630;BME280;17386;43.846;25.950;2023-03-26T10:12:27;100687.56;;;18.74;55.47
20630;BME280;17386;43.846;25.950;2023-03-26T10:20:57;100684.56;;;18.14;55.65
20630;BME280;17386;43.846;25.950;2023-03-26T10:26:38;100678.94;;;18.04;58.56
20630;BME280;17386;43.846;25.950;2023-03-26T10:29:29;100690.16;;;17.84;63.17
20630;BME280;17386;43.846;25.950;2023-03-26T10:32:05;100681.94;;;17.99;63.46
20630;BME280;17386;43.846;25.950;2023-03-26T10:45:52;100660.31;;;18.53;59.30
20630;BME280;17386;43.846;25.950;2023-03-26T10:51:31;100645.66;;;18.57;59.64
20630;BME280;17386;43.846;25.950;2023-03-26T10:56:56;100636.72;;;18.19;60.20
20630;BME280;17386;43.846;25.950;2023-03-26T10:59:25;100631.13;;;18.22;60.44
20630;BME280;17386;43.846;25.950;2023-03-26T11:02:27;100632.53;;;18.53;55.35
20630;BME280;17386;43.846;25.950;2023-03-26T11:07:28;100628.66;;;19.19;51.39
20630;BME280;17386;43.846;25.950;2023-03-26T11:10:18;100635.50;;;19.73;50.67
20630;BME280;17386;43.846;25.950;2023-03-26T11:15:26;100623.28;;;20.37;46.48
20630;BME280;17386;43.846;25.950;2023-03-26T11:20:39;100615.19;;;20.26;49.01
20630;BME280;17386;43.846;25.950;2023-03-26T11:23:24;100614.19;;;20.16;46.55
20630;BME280;17386;43.846;25.950;2023-03-26T11:26:15;100613.97;;;20.19;47.44
20630;BME280;17386;43.846;25.950;2023-03-26T11:29:19;100604.69;;;21.01;46.43
20630;BME280;17386;43.846;25.950;2023-03-26T11:34:20;100603.72;;;21.14;46.47
20630;BME280;17386;43.846;25.950;2023-03-26T11:36:51;100597.50;;;20.80;47.19
20630;BME280;17386;43.846;25.950;2023-03-26T11:39:23;100589.38;;;20.57;47.73
20630;BME280;17386;43.846;25.950;2023-03-26T11:41:53;100588.59;;;20.33;47.30
20630;BME280;17386;43.846;25.950;2023-03-26T11:44:26;100589.72;;;20.41;45.20
20630;BME280;17386;43.846;25.950;2023-03-26T11:46:56;100593.75;;;20.25;46.57
20630;BME280;17386;43.846;25.950;2023-03-26T11:49:25;100584.41;;;20.29;46.96
20630;BME280;17386;43.846;25.950;2023-03-26T11:51:53;100591.34;;;20.55;45.71
20630;BME280;17386;43.846;25.950;2023-03-26T11:54:19;100586.31;;;20.73;46.10
20630;BME280;17386;43.846;25.950;2023-03-26T11:57:01;100577.03;;;20.08;46.15
20630;BME280;17386;43.846;25.950;2023-03-26T11:59:32;100582.38;;;20.77;46.12
20630;BME280;17386;43.846;25.950;2023-03-26T12:09:49;100571.81;;;20.85;44.62
20630;BME280;17386;43.846;25.950;2023-03-26T12:12:15;100558.88;;;21.11;45.50
20630;BME280;17386;43.846;25.950;2023-03-26T12:14:41;100551.66;;;21.55;45.07
20630;BME280;17386;43.846;25.950;2023-03-26T12:17:11;100545.78;;;21.50;43.74
20630;BME280;17386;43.846;25.950;2023-03-26T12:19:43;100548.56;;;21.05;44.41
20630;BME280;17386;43.846;25.950;2023-03-26T12:25:17;100557.13;;;21.33;42.48
20630;BME280;17386;43.846;25.950;2023-03-26T12:30:40;100537.38;;;21.21;44.04
20630;BME280;17386;43.846;25.950;2023-03-26T12:33:14;100538.91;;;21.46;43.31
20630;BME280;17386;43.846;25.950;2023-03-26T12:35:42;100541.31;;;21.28;43.00
20630;BME280;17386;43.846;25.950;2023-03-26T12:40:46;100528.41;;;21.52;42.24
20630;BME280;17386;43.846;25.950;2023-03-26T12:46:19;100520.78;;;21.78;41.40
20630;BME280;17386;43.846;25.950;2023-03-26T12:48:46;100522.28;;;22.34;40.23
20630;BME280;17386;43.846;25.950;2023-03-26T12:57:18;100505.16;;;21.61;40.14
20630;BME280;17386;43.846;25.950;2023-03-26T13:05:57;100514.25;;;20.96;41.35
20630;BME280;17386;43.846;25.950;2023-03-26T13:11:15;100501.94;;;20.48;42.10
20630;BME280;17386;43.846;25.950;2023-03-26T13:19:44;100499.84;;;20.52;41.10
20630;BME280;17386;43.846;25.950;2023-03-26T13:25:44;100491.69;;;19.85;43.91
20630;BME280;17386;43.846;25.950;2023-03-26T13:30:30;100492.97;;;19.57;43.42
20630;BME280;17386;43.846;25.950;2023-03-26T13:38:37;100497.31;;;19.11;43.46
20630;BME280;17386;43.846;25.950;2023-03-26T13:41:18;100497.81;;;18.93;44.58
20630;BME280;17386;43.846;25.950;2023-03-26T13:47:15;100495.94;;;19.06;44.37
20630;BME280;17386;43.846;25.950;2023-03-26T13:49:47;100494.66;;;18.99;42.88
20630;BME280;17386;43.846;25.950;2023-03-26T13:52:44;100492.22;;;18.96;43.35
20630;BME280;17386;43.846;25.950;2023-03-26T13:58:03;100484.88;;;18.98;42.14
20630;BME280;17386;43.846;25.950;2023-03-26T14:04:01;100493.28;;;18.93;43.22
20630;BME280;17386;43.846;25.950;2023-03-26T14:10:03;100476.97;;;18.83;43.41
20630;BME280;17386;43.846;25.950;2023-03-26T14:12:45;100490.03;;;18.77;44.21
20630;BME280;17386;43.846;25.950;2023-03-26T14:23:27;100475.72;;;18.76;42.72
20630;BME280;17386;43.846;25.950;2023-03-26T14:32:34;100473.22;;;18.73;42.59
20630;BME280;17386;43.846;25.950;2023-03-26T14:40:20;100471.88;;;18.68;42.25
20630;BME280;17386;43.846;25.950;2023-03-26T14:43:03;100472.06;;;18.65;42.41
20630;BME280;17386;43.846;25.950;2023-03-26T14:54:09;100477.25;;;18.55;41.30
20630;BME280;17386;43.846;25.950;2023-03-26T15:31:08;100465.28;;;18.10;44.00
20630;BME280;17386;43.846;25.950;2023-03-26T15:44:33;100468.22;;;17.94;45.00
20630;BME280;17386;43.846;25.950;2023-03-26T15:58:52;100470.97;;;17.54;46.15
20630;BME280;17386;43.846;25.950;2023-03-26T16:09:57;100479.28;;;17.24;47.87
20630;BME280;17386;43.846;25.950;2023-03-26T16:12:36;100474.97;;;17.21;48.12
20630;BME280;17386;43.846;25.950;2023-03-26T16:20:44;100489.69;;;16.89;48.58
20630;BME280;17386;43.846;25.950;2023-03-26T16:34:18;100503.63;;;16.38;52.15
20630;BME280;17386;43.846;25.950;2023-03-26T16:36:45;100506.06;;;16.29;52.58
20630;BME280;17386;43.846;25.950;2023-03-26T16:39:37;100510.44;;;16.30;52.56
20630;BME280;17386;43.846;25.950;2023-03-26T16:45:05;100513.03;;;16.17;52.79
20630;BME280;17386;43.846;25.950;2023-03-26T16:47:54;100508.81;;;15.99;52.78
20630;BME280;17386;43.846;25.950;2023-03-26T16:50:42;100507.56;;;15.90;53.23
20630;BME280;17386;43.846;25.950;2023-03-26T17:01:46;100518.28;;;15.46;54.81
20630;BME280;17386;43.846;25.950;2023-03-26T17:04:21;100525.19;;;15.34;54.82
20630;BME280;17386;43.846;25.950;2023-03-26T17:12:40;100543.69;;;15.23;54.70
20630;BME280;17386;43.846;25.950;2023-03-26T17:17:49;100542.16;;;15.19;54.24
20630;BME280;17386;43.846;25.950;2023-03-26T17:26:08;100557.00;;;15.09;54.54
20630;BME280;17386;43.846;25.950;2023-03-26T17:37:48;100555.91;;;14.97;53.92
20630;BME280;17386;43.846;25.950;2023-03-26T17:42:33;100555.03;;;14.81;53.86
20630;BME280;17386;43.846;25.950;2023-03-26T17:45:19;100560.47;;;14.79;54.19
20630;BME280;17386;43.846;25.950;2023-03-26T17:47:55;100562.81;;;14.69;54.40
20630;BME280;17386;43.846;25.950;2023-03-26T17:50:29;100568.84;;;14.73;54.09
20630;BME280;17386;43.846;25.950;2023-03-26T17:53:12;100569.97;;;14.69;53.96
20630;BME280;17386;43.846;25.950;2023-03-26T17:55:42;100569.16;;;14.67;54.30
20630;BME280;17386;43.846;25.950;2023-03-26T17:58:36;100558.22;;;14.56;54.12
20630;BME280;17386;43.846;25.950;2023-03-26T18:03:47;100567.53;;;14.48;54.37
20630;BME280;17386;43.846;25.950;2023-03-26T18:06:59;100570.25;;;14.47;54.41
20630;BME280;17386;43.846;25.950;2023-03-26T18:12:08;100571.59;;;14.38;54.06
20630;BME280;17386;43.846;25.950;2023-03-26T18:17:24;100575.53;;;14.31;54.03
20630;BME280;17386;43.846;25.950;2023-03-26T18:19:54;100579.78;;;14.35;53.63
20630;BME280;17386;43.846;25.950;2023-03-26T18:22:27;100577.03;;;14.37;53.82
20630;BME280;17386;43.846;25.950;2023-03-26T18:24:59;100566.50;;;14.34;53.69
20630;BME280;17386;43.846;25.950;2023-03-26T18:27:32;100575.13;;;14.39;53.28
20630;BME280;17386;43.846;25.950;2023-03-26T18:30:08;100578.53;;;14.42;52.87
20630;BME280;17386;43.846;25.950;2023-03-26T18:32:48;100573.09;;;14.44;52.50
20630;BME280;17386;43.846;25.950;2023-03-26T18:35:16;100575.75;;;14.44;52.01
20630;BME280;17386;43.846;25.950;2023-03-26T18:37:43;100579.38;;;14.43;51.90
20630;BME280;17386;43.846;25.950;2023-03-26T18:40:13;100582.91;;;14.43;51.99
20630;BME280;17386;43.846;25.950;2023-03-26T18:43:00;100575.91;;;14.41;51.78
20630;BME280;17386;43.846;25.950;2023-03-26T18:45:35;100574.34;;;14.37;51.53
20630;BME280;17386;43.846;25.950;2023-03-26T18:50:39;100571.44;;;14.41;50.49
20630;BME280;17386;43.846;25.950;2023-03-26T18:53:13;100569.00;;;14.37;50.24
20630;BME280;17386;43.846;25.950;2023-03-26T18:55:39;100569.53;;;14.43;50.10
20630;BME280;17386;43.846;25.950;2023-03-26T18:58:28;100559.63;;;14.45;50.12
20630;BME280;17386;43.846;25.950;2023-03-26T19:00:57;100562.47;;;14.42;50.02
20630;BME280;17386;43.846;25.950;2023-03-26T19:03:24;100556.44;;;14.39;49.74